Time;durP1;ratioP1;P1;durP2;ratioP2;P2;SDS_P1;SDS_P2;PMS_P1;PMS_P2;Temp;Humidity;BMP_temperature;BMP_pressure;BME280_temperature;BME280_humidity;BME280_pressure;Samples;Min_cycle;Max_cycle;Signal;HPM_P1;HPM_P2
2023/03/14 00:04:40;;;;;;;4.40;1.30;;;;;;;21.53;37.44;97656.77;272959;1283;22592;-88
2023/03/14 00:11:18;;;;;;;3.00;1.10;;;;;;;21.76;37.19;97652.59;272752;1287;22425;-87
2023/03/14 00:17:22;;;;;;;2.50;1.20;;;;;;;21.80;36.95;97647.34;272345;1288;22630;-87
2023/03/14 00:23:27;;;;;;;2.30;1.10;;;;;;;21.69;37.20;97643.59;272592;1287;22288;-88
2023/03/14 00:29:34;;;;;;;2.80;1.40;;;;;;;21.84;37.29;97636.44;272707;1283;22122;-89
2023/03/14 00:36:12;;;;;;;3.30;1.30;;;;;;;21.86;37.37;97629.39;272336;1288;22367;-92
2023/03/14 00:42:24;;;;;;;3.30;1.60;;;;;;;21.78;37.72;97607.70;272960;1282;23127;-91
2023/03/14 00:48:27;;;;;;;2.70;1.20;;;;;;;21.77;38.00;97595.55;272466;1287;22384;-90
2023/03/14 00:54:33;;;;;;;2.50;1.20;;;;;;;21.95;37.74;97582.30;272576;1285;22104;-89
2023/03/14 01:00:40;;;;;;;3.90;1.30;;;;;;;22.08;37.57;97561.13;272423;1288;22446;-91
2023/03/14 01:06:44;;;;;;;3.20;1.30;;;;;;;22.11;37.58;97545.42;272752;1287;22394;-92
2023/03/14 01:12:54;;;;;;;2.20;1.20;;;;;;;22.06;37.55;97526.98;272847;1288;22488;-91
2023/03/14 01:19:10;;;;;;;4.20;1.30;;;;;;;21.98;37.68;97500.83;272908;1283;22087;-92
2023/03/14 01:25:53;;;;;;;2.70;1.10;;;;;;;21.87;37.85;97484.41;272847;1288;22297;-89
2023/03/14 01:31:57;;;;;;;3.30;1.20;;;;;;;21.68;38.05;97480.63;272713;1288;22215;-91
2023/03/14 01:38:02;;;;;;;2.00;1.10;;;;;;;21.46;38.27;97468.36;272810;1288;22508;-90
2023/03/14 01:44:10;;;;;;;1.90;1.20;;;;;;;21.19;38.45;97465.48;272790;1288;22415;-89
2023/03/14 01:50:18;;;;;;;3.00;1.30;;;;;;;21.19;38.27;97477.98;272610;1288;22118;-89
2023/03/14 01:56:25;;;;;;;3.50;1.50;;;;;;;20.83;38.86;97467.41;272757;1288;22626;-90
2023/03/14 02:02:31;;;;;;;2.90;1.60;;;;;;;20.98;39.01;97454.25;272789;1288;22136;-90
2023/03/14 02:08:35;;;;;;;3.10;1.50;;;;;;;20.80;39.27;97434.77;272428;1288;22163;-90
2023/03/14 02:14:47;;;;;;;3.40;1.50;;;;;;;20.82;39.35;97419.63;272621;1287;22366;-82
2023/03/14 02:21:17;;;;;;;4.00;1.60;;;;;;;20.77;39.51;97411.51;272697;1288;22104;-84
2023/03/14 02:27:21;;;;;;;3.20;1.60;;;;;;;20.75;39.61;97388.86;272653;1287;22451;-85
2023/03/14 02:33:25;;;;;;;3.10;1.70;;;;;;;20.61;39.91;97373.26;272445;1285;22422;-85
2023/03/14 02:39:41;;;;;;;3.80;1.70;;;;;;;20.51;40.12;97352.89;272515;1288;22292;-82
2023/03/14 02:45:47;;;;;;;2.90;1.40;;;;;;;20.79;39.75;97338.63;272596;1288;22231;-83
2023/03/14 02:51:52;;;;;;;4.30;1.40;;;;;;;20.90;39.56;97338.69;272610;1287;22405;-84
2023/03/14 02:57:55;;;;;;;4.00;2.30;;;;;;;21.13;39.24;97339.52;272679;1287;22364;-83
2023/03/14 03:03:58;;;;;;;5.10;1.40;;;;;;;20.81;39.66;97323.40;272655;1288;22147;-83
2023/03/14 03:10:02;;;;;;;3.30;1.50;;;;;;;20.56;39.99;97318.15;272615;1287;22197;-83
2023/03/14 03:16:05;;;;;;;2.80;1.30;;;;;;;20.93;39.53;97319.37;272718;1283;22135;-83
2023/03/14 03:22:10;;;;;;;3.90;1.60;;;;;;;20.86;39.60;97316.54;272611;1287;23362;-83
2023/03/14 03:28:16;;;;;;;3.20;1.40;;;;;;;20.92;39.47;97303.52;272591;1288;22254;-86
2023/03/14 03:34:19;;;;;;;3.10;1.70;;;;;;;21.06;39.23;97300.30;272622;1283;22350;-86
2023/03/14 03:40:26;;;;;;;5.60;1.60;;;;;;;21.08;39.19;97291.70;272506;1285;22542;-87
2023/03/14 03:46:30;;;;;;;3.00;1.50;;;;;;;20.92;39.37;97290.73;272315;1288;22118;-87
2023/03/14 03:52:33;;;;;;;3.00;1.40;;;;;;;21.02;39.38;97286.27;272509;1288;22372;-86
2023/03/14 03:58:38;;;;;;;3.40;1.80;;;;;;;21.30;39.06;97285.30;272685;1288;22383;-87
2023/03/14 04:05:21;;;;;;;;;;;;;;;;;;;;;
2023/03/14 04:19:20;;;;;;;5.00;1.40;;;;;;;21.38;38.98;97317.34;273085;1285;22149;-90
2023/03/14 04:25:25;;;;;;;2.90;1.30;;;;;;;21.18;39.15;97326.38;273001;1270;22354;-91
2023/03/14 04:31:31;;;;;;;;;;;;;;;20.54;40.13;97339.42;272959;1285;22450;-89
2023/03/14 04:37:35;;;;;;;2.90;1.50;;;;;;;20.31;40.53;97344.65;272897;1281;22369;-83
2023/03/14 04:43:43;;;;;;;2.50;1.70;;;;;;;20.72;39.96;97346.09;272786;1285;22122;-84
2023/03/14 04:49:48;;;;;;;3.20;1.50;;;;;;;20.45;40.28;97350.90;272806;1285;22228;-86
2023/03/14 04:55:54;;;;;;;2.70;1.30;;;;;;;20.04;41.04;97365.39;272670;1286;22883;-86
2023/03/14 05:01:59;;;;;;;2.90;1.80;;;;;;;20.07;41.23;97377.26;272814;1287;22482;-85
2023/03/14 05:08:26;;;;;;;3.60;1.70;;;;;;;19.89;41.47;97376.38;272756;1283;22109;-86
2023/03/14 05:14:52;;;;;;;2.90;1.60;;;;;;;19.58;42.14;97381.76;272531;1280;22112;-85
2023/03/14 05:21:08;;;;;;;4.20;1.70;;;;;;;19.34;42.50;97379.92;272740;1286;22123;-85
2023/03/14 05:27:47;;;;;;;6.80;2.10;;;;;;;19.44;42.62;97367.38;272135;1286;23069;-83
2023/03/14 05:34:08;;;;;;;6.00;2.40;;;;;;;19.58;42.43;97357.48;272893;1286;22094;-90
2023/03/14 05:40:20;;;;;;;5.60;1.80;;;;;;;19.45;42.94;97343.08;272922;1284;22180;-85
2023/03/14 05:46:35;;;;;;;4.70;1.70;;;;;;;19.60;42.81;97327.59;272861;1286;22212;-88
2023/03/14 05:52:50;;;;;;;5.10;1.90;;;;;;;19.94;42.41;97336.29;272741;1282;22344;-88
2023/03/14 05:59:02;;;;;;;5.60;2.10;;;;;;;20.56;41.92;97322.26;272813;1286;22415;-87
2023/03/14 06:05:14;;;;;;;3.60;2.20;;;;;;;20.02;42.44;97316.84;272767;1285;22484;-87
2023/03/14 06:11:20;;;;;;;7.00;2.40;;;;;;;19.40;43.37;97334.56;272824;1281;22358;-83
2023/03/14 06:17:23;;;;;;;5.60;2.10;;;;;;;20.21;42.08;97320.43;272848;1281;22090;-82
2023/03/14 06:23:31;;;;;;;7.20;2.00;;;;;;;21.23;41.18;97314.45;272909;1286;23233;-84
2023/03/14 06:29:35;;;;;;;7.20;2.50;;;;;;;21.45;40.57;97318.77;272863;1284;22258;-82
2023/03/14 06:35:49;;;;;;;;;;;;;;;;;;;;;
2023/03/14 06:42:05;;;;;;;6.10;2.40;;;;;;;21.37;41.30;97289.11;272691;1279;23493;-81
2023/03/14 06:48:08;;;;;;;8.70;2.80;;;;;;;21.34;41.37;97286.28;272769;1280;22257;-79
2023/03/14 06:54:14;;;;;;;;;;;;;;;22.08;40.25;97281.91;272739;1284;22534;-81
2023/03/14 07:00:17;;;;;;;6.70;2.50;;;;;;;22.72;39.59;97275.55;272714;1283;22932;-81
2023/03/14 07:06:21;;;;;;;5.80;2.40;;;;;;;23.26;38.70;97267.60;272858;1283;22399;-82
2023/03/14 07:12:24;;;;;;;6.30;2.50;;;;;;;23.67;37.98;97259.05;272826;1282;22437;-81
2023/03/14 07:18:27;;;;;;;7.60;2.70;;;;;;;24.09;38.24;97250.73;272979;1282;22212;-81
2023/03/14 07:24:31;;;;;;;4.00;1.80;;;;;;;24.49;37.60;97246.79;272852;1281;22360;-81
2023/03/14 07:30:35;;;;;;;4.70;1.90;;;;;;;24.70;37.29;97250.41;272858;1283;22851;-81
2023/03/14 07:36:40;;;;;;;7.10;2.00;;;;;;;25.07;36.94;97247.19;272763;1284;22943;-81
2023/03/14 07:42:43;;;;;;;4.40;1.70;;;;;;;25.22;36.44;97240.63;272851;1280;22309;-82
2023/03/14 07:48:52;;;;;;;3.60;1.60;;;;;;;25.36;36.00;97235.86;272718;1286;133082;-81
2023/03/14 07:54:57;;;;;;;5.00;2.50;;;;;;;25.55;35.79;97236.96;272874;1282;22408;-81
2023/03/14 08:01:01;;;;;;;4.90;1.90;;;;;;;25.74;35.56;97253.45;272745;1280;23570;-81
2023/03/14 08:07:04;;;;;;;5.70;2.50;;;;;;;25.76;35.89;97258.73;272959;1279;22270;-82
2023/03/14 08:13:07;;;;;;;6.40;2.00;;;;;;;25.98;35.44;97266.54;272975;1279;22409;-81
2023/03/14 08:19:10;;;;;;;9.20;2.50;;;;;;;25.73;35.13;97270.51;272907;1284;22232;-81
2023/03/14 08:25:13;;;;;;;5.30;2.30;;;;;;;25.36;35.43;97269.65;272849;1286;22972;-80
2023/03/14 08:31:17;;;;;;;5.60;1.80;;;;;;;25.34;34.86;97269.85;272796;1286;22107;-80
2023/03/14 08:37:20;;;;;;;3.40;1.70;;;;;;;26.17;34.62;97266.86;272747;1281;23061;-79
2023/03/14 08:43:29;;;;;;;6.20;2.10;;;;;;;25.92;34.91;97252.62;272669;1287;23015;-79
2023/03/14 08:49:32;;;;;;;5.30;2.20;;;;;;;26.20;34.82;97254.09;272729;1280;22405;-81
2023/03/14 08:55:35;;;;;;;4.00;2.00;;;;;;;26.01;34.96;97248.48;272832;1286;22247;-79
2023/03/14 09:01:38;;;;;;;4.60;2.20;;;;;;;26.51;34.49;97254.21;272732;1284;22244;-80
2023/03/14 09:07:41;;;;;;;7.60;2.00;;;;;;;26.57;34.59;97264.18;272815;1286;22355;-80
2023/03/14 09:13:44;;;;;;;6.20;2.30;;;;;;;26.40;34.35;97282.13;272749;1284;23474;-80
2023/03/14 09:19:47;;;;;;;3.40;2.00;;;;;;;26.47;34.15;97285.30;272757;1284;22758;-81
2023/03/14 09:25:57;;;;;;;5.30;2.10;;;;;;;25.73;34.70;97272.14;272850;1285;22109;-81
2023/03/14 09:32:00;;;;;;;5.10;2.00;;;;;;;25.71;34.51;97283.92;272821;1279;23482;-80
2023/03/14 09:38:05;;;;;;;3.40;2.00;;;;;;;26.09;34.36;97293.75;272805;1279;22218;-80
2023/03/14 09:44:15;;;;;;;4.30;2.00;;;;;;;26.00;34.33;97288.66;272838;1285;22410;-80
2023/03/14 09:50:18;;;;;;;5.30;2.00;;;;;;;26.44;33.90;97308.14;272689;1280;22348;-80
2023/03/14 09:56:24;;;;;;;4.60;2.20;;;;;;;26.82;33.52;97307.67;272707;1281;22772;-80
2023/03/14 10:02:35;;;;;;;5.90;2.60;;;;;;;26.44;33.85;97314.52;272718;1283;22205;-80
2023/03/14 10:08:40;;;;;;;3.40;1.80;;;;;;;27.22;33.42;97316.30;272687;1282;22237;-80
2023/03/14 10:14:52;;;;;;;5.80;2.40;;;;;;;27.83;33.01;97327.21;272678;1283;22283;-80
2023/03/14 10:21:09;;;;;;;3.00;2.10;;;;;;;27.49;33.28;97333.27;272791;1284;22810;-80
2023/03/14 10:27:27;;;;;;;3.80;2.40;;;;;;;27.62;33.27;97330.57;272774;1283;22255;-81
2023/03/14 10:33:36;;;;;;;3.50;2.30;;;;;;;28.23;32.71;97329.77;272889;1286;22191;-81
2023/03/14 10:39:47;;;;;;;3.50;2.10;;;;;;;28.18;32.63;97326.30;272817;1280;22410;-80
2023/03/14 10:45:57;;;;;;;3.30;2.00;;;;;;;27.85;33.23;97325.33;272663;1286;23659;-81
2023/03/14 10:52:13;;;;;;;3.60;1.90;;;;;;;28.57;32.75;97331.02;272747;1280;22942;-81
2023/03/14 10:58:30;;;;;;;2.10;1.80;;;;;;;28.25;32.94;97335.13;272766;1279;22393;-80
2023/03/14 11:04:56;;;;;;;5.10;2.30;;;;;;;27.98;33.20;97325.77;272799;1280;22967;-81
2023/03/14 11:11:11;;;;;;;5.10;1.90;;;;;;;28.00;33.48;97313.46;272710;1282;22339;-81
2023/03/14 11:17:53;;;;;;;3.80;2.00;;;;;;;27.32;34.36;97311.63;272804;1280;22889;-81
2023/03/14 11:24:13;;;;;;;4.00;1.60;;;;;;;27.77;33.97;97308.65;272814;1280;23493;-81
2023/03/14 11:30:53;;;;;;;3.80;1.90;;;;;;;27.54;34.37;97304.91;272834;1280;23575;-81
2023/03/14 11:37:18;;;;;;;4.20;1.80;;;;;;;27.49;34.42;97300.08;272764;1282;23019;-80
2023/03/14 11:43:28;;;;;;;3.30;1.70;;;;;;;27.26;34.53;97292.20;272857;1279;22223;-81
2023/03/14 11:49:42;;;;;;;4.10;1.80;;;;;;;26.77;35.40;97293.77;272826;1279;22254;-81
2023/03/14 11:55:47;;;;;;;4.00;1.70;;;;;;;26.47;35.74;97290.05;272680;1283;22325;-81
2023/03/14 12:02:00;;;;;;;5.00;2.10;;;;;;;26.53;35.55;97299.95;272846;1281;22874;-81
2023/03/14 12:08:09;;;;;;;3.60;2.00;;;;;;;26.33;35.81;97304.57;272792;1279;22381;-80
2023/03/14 12:14:33;;;;;;;3.90;1.90;;;;;;;26.21;35.81;97298.77;272871;1280;22163;-81
2023/03/14 12:20:38;;;;;;;4.60;2.10;;;;;;;25.91;36.12;97294.53;272641;1284;22426;-82
2023/03/14 12:26:56;;;;;;;3.40;1.60;;;;;;;25.59;36.34;97287.31;272849;1279;22270;-81
2023/03/14 12:33:20;;;;;;;4.40;2.10;;;;;;;25.84;36.00;97272.59;272719;1283;22431;-81
2023/03/14 12:39:43;;;;;;;2.70;1.90;;;;;;;26.24;35.65;97263.95;272741;1282;22097;-81
2023/03/14 12:46:09;;;;;;;2.90;1.80;;;;;;;26.73;35.22;97253.59;272834;1280;22230;-81
2023/03/14 12:52:20;;;;;;;3.70;2.00;;;;;;;27.14;34.95;97252.73;272809;1283;22382;-81
2023/03/14 12:58:26;;;;;;;2.80;2.00;;;;;;;27.14;34.97;97255.67;272790;1282;22681;-81
2023/03/14 13:04:31;;;;;;;3.80;2.00;;;;;;;26.93;35.32;97255.48;272877;1280;22922;-82
2023/03/14 13:10:46;;;;;;;4.40;1.80;;;;;;;26.97;35.48;97259.35;272876;1277;22324;-80
2023/03/14 13:16:49;;;;;;;;;;;;;;;26.60;35.94;97267.19;272708;1281;22448;-81
2023/03/14 13:22:52;;;;;;;3.90;1.80;;;;;;;26.49;36.33;97278.44;272735;1280;22280;-81
2023/03/14 13:28:55;;;;;;;3.40;2.10;;;;;;;26.14;36.87;97284.85;272858;1283;22236;-81
2023/03/14 13:35:01;;;;;;;5.20;1.70;;;;;;;25.94;37.25;97289.23;272829;1283;22340;-81
2023/03/14 13:41:11;;;;;;;3.10;1.80;;;;;;;26.06;37.28;97289.66;272840;1280;22350;-80
2023/03/14 13:47:19;;;;;;;3.60;1.90;;;;;;;25.34;38.15;97296.34;272755;1283;22364;-81
2023/03/14 13:53:22;;;;;;;3.30;2.10;;;;;;;25.56;37.95;97306.46;272845;1280;22143;-81
2023/03/14 13:59:28;;;;;;;3.80;2.00;;;;;;;25.18;38.52;97315.13;272744;1280;22388;-81
2023/03/14 14:05:32;;;;;;;4.00;2.10;;;;;;;24.94;38.84;97320.11;272863;1280;22644;-80
2023/03/14 14:11:37;;;;;;;5.00;2.30;;;;;;;25.12;38.83;97328.23;272854;1280;22407;-81
2023/03/14 14:17:55;;;;;;;3.90;2.20;;;;;;;24.99;39.40;97334.94;272906;1285;22253;-81
2023/03/14 14:24:00;;;;;;;;;;;;;;;24.55;39.92;97350.00;272680;1283;23185;-81
2023/03/14 14:30:18;;;;;;;4.30;2.40;;;;;;;25.08;39.41;97334.07;272772;1279;22359;-80
2023/03/14 14:36:39;;;;;;;5.20;2.50;;;;;;;25.00;39.72;97330.43;272837;1279;22372;-80
2023/03/14 14:42:42;;;;;;;4.30;2.00;;;;;;;24.98;39.97;97335.17;272837;1281;22134;-81
2023/03/14 14:48:49;;;;;;;4.30;2.20;;;;;;;24.85;40.65;97345.25;272864;1280;22361;-81
2023/03/14 14:54:57;;;;;;;6.20;2.50;;;;;;;24.70;41.20;97341.15;272858;1278;22308;-80
2023/03/14 15:01:18;;;;;;;6.20;2.90;;;;;;;24.43;41.75;97344.91;272848;1283;22115;-81
2023/03/14 15:07:21;;;;;;;6.50;3.10;;;;;;;24.01;42.65;97341.14;272775;1278;22141;-81
2023/03/14 15:13:24;;;;;;;6.50;3.10;;;;;;;23.93;42.85;97351.59;272876;1279;22426;-81
2023/03/14 15:19:28;;;;;;;7.30;3.10;;;;;;;23.79;43.28;97363.45;272970;1280;22822;-81
2023/03/14 15:25:33;;;;;;;5.20;2.60;;;;;;;24.20;42.78;97352.83;272816;1280;22233;-80
2023/03/14 15:31:56;;;;;;;5.70;2.40;;;;;;;24.28;42.73;97354.45;272776;1280;22395;-80
2023/03/14 15:37:59;;;;;;;6.60;3.00;;;;;;;24.00;43.31;97357.53;272791;1280;22798;-81
2023/03/14 15:44:02;;;;;;;7.00;3.00;;;;;;;24.32;43.10;97371.25;272728;1280;22924;-81
2023/03/14 15:50:09;;;;;;;6.10;3.10;;;;;;;24.29;43.27;97379.13;272559;1280;22993;-79
2023/03/14 15:56:17;;;;;;;5.50;3.10;;;;;;;24.29;43.38;97385.52;272537;1286;23169;-80
2023/03/14 16:02:20;;;;;;;6.70;3.10;;;;;;;24.25;43.48;97383.20;272705;1280;22434;-82
2023/03/14 16:08:25;;;;;;;5.80;3.00;;;;;;;24.43;43.63;97383.28;272849;1283;22450;-81
2023/03/14 16:14:28;;;;;;;4.60;2.70;;;;;;;23.82;44.95;97384.75;272719;1280;22437;-81
2023/03/14 16:20:31;;;;;;;5.40;2.60;;;;;;;23.33;46.15;97388.23;272892;1279;22180;-81
2023/03/14 16:26:49;;;;;;;5.00;2.80;;;;;;;23.19;47.02;97395.96;272878;1280;22992;-82
2023/03/14 16:32:52;;;;;;;4.90;2.90;;;;;;;23.27;47.12;97398.27;272796;1280;22918;-81
2023/03/14 16:38:55;;;;;;;4.70;2.50;;;;;;;23.31;47.27;97396.17;272816;1279;22190;-81
2023/03/14 16:45:04;;;;;;;4.60;2.60;;;;;;;23.44;47.23;97386.92;272845;1280;22204;-81
2023/03/14 16:51:15;;;;;;;5.20;2.70;;;;;;;23.56;47.14;97389.05;272847;1280;22170;-81
2023/03/14 16:57:19;;;;;;;5.10;2.50;;;;;;;23.62;47.23;97397.36;272756;1285;22306;-80
2023/03/14 17:03:22;;;;;;;6.00;3.40;;;;;;;23.61;47.49;97390.83;272740;1280;22458;-80
2023/03/14 17:09:27;;;;;;;8.20;3.50;;;;;;;23.30;48.28;97371.65;272836;1280;22227;-82
2023/03/14 17:15:30;;;;;;;6.90;4.80;;;;;;;23.53;48.12;97371.14;272954;1280;22232;-83
2023/03/14 17:21:33;;;;;;;7.60;4.30;;;;;;;23.45;48.50;97356.70;272918;1280;22400;-82
2023/03/14 17:27:36;;;;;;;9.10;4.70;;;;;;;22.87;49.35;97317.14;272903;1279;22160;-81
2023/03/14 17:34:07;;;;;;;12.10;4.70;;;;;;;22.52;50.27;97303.09;272856;1279;22873;-82
2023/03/14 17:40:13;;;;;;;11.80;5.50;;;;;;;22.47;50.25;97287.53;272815;1279;22883;-80
2023/03/14 17:46:16;;;;;;;11.20;6.60;;;;;;;22.68;49.74;97295.97;272973;1284;22369;-83
2023/03/14 17:52:19;;;;;;;9.20;5.60;;;;;;;22.12;50.33;97337.37;272728;1283;22137;-78
2023/03/14 17:58:23;;;;;;;8.10;5.20;;;;;;;21.17;52.53;97349.91;272979;1283;22354;-80
2023/03/14 18:04:26;;;;;;;7.80;4.80;;;;;;;21.55;52.40;97349.21;272726;1279;22435;-79
2023/03/14 18:10:29;;;;;;;8.20;5.20;;;;;;;22.54;50.62;97353.96;272133;1284;22402;-79
2023/03/14 18:16:33;;;;;;;9.00;4.90;;;;;;;23.05;49.31;97359.54;272435;1281;22367;-80
2023/03/14 18:22:40;;;;;;;9.50;5.40;;;;;;;23.17;48.87;97366.08;272847;1280;22068;-81
2023/03/14 18:28:45;;;;;;;9.30;5.70;;;;;;;23.35;48.20;97370.34;272780;1280;22380;-82
2023/03/14 18:34:53;;;;;;;10.10;6.00;;;;;;;23.31;47.98;97369.95;272738;1283;22241;-80
2023/03/14 18:41:06;;;;;;;12.30;6.30;;;;;;;23.07;48.23;97374.29;272888;1280;22349;-78
2023/03/14 18:47:09;;;;;;;8.80;5.70;;;;;;;22.55;48.93;97376.95;272761;1286;22370;-78
2023/03/14 18:53:12;;;;;;;10.60;6.10;;;;;;;22.32;49.28;97386.72;272825;1282;22774;-79
2023/03/14 18:59:16;;;;;;;11.70;6.30;;;;;;;22.81;48.47;97391.05;272941;1280;22110;-83
2023/03/14 19:05:20;;;;;;;12.10;6.50;;;;;;;22.67;48.40;97397.20;272858;1279;22079;-82
2023/03/14 19:11:27;;;;;;;10.20;6.40;;;;;;;21.75;49.98;97403.89;272474;1280;22230;-83
2023/03/14 19:49:57;;;;;;;13.70;7.60;;;;;;;21.13;50.61;97437.34;255787;1328;22599;-85
2023/03/14 19:56:01;;;;;;;15.60;8.20;;;;;;;20.97;51.13;97445.27;261095;1303;108258;-86
2023/03/14 20:02:03;;;;;;;11.10;6.30;;;;;;;20.64;51.33;97449.84;262314;1298;23346;-82
2023/03/14 20:08:06;;;;;;;10.50;6.30;;;;;;;20.35;51.79;97446.16;262156;1301;24755;-84
2023/03/14 20:14:13;;;;;;;12.60;7.00;;;;;;;20.02;52.08;97446.91;262655;1297;22604;-88
2023/03/14 20:20:17;;;;;;;12.30;6.00;;;;;;;19.98;51.81;97451.20;263017;1299;22553;-86
2023/03/14 20:26:19;;;;;;;10.80;5.80;;;;;;;19.67;51.95;97466.88;266798;1276;22559;-79
2023/03/14 20:32:22;;;;;;;9.60;5.60;;;;;;;19.74;51.63;97471.40;267761;1276;22558;-84
2023/03/14 20:38:35;;;;;;;9.50;5.10;;;;;;;19.47;52.04;97479.54;268014;1276;22644;-92
2023/03/14 20:44:38;;;;;;;8.60;5.30;;;;;;;19.34;52.02;97477.90;268457;1277;22571;-89
2023/03/14 20:50:40;;;;;;;10.00;5.00;;;;;;;19.55;51.35;97478.91;268150;1276;22524;-90
2023/03/14 20:56:45;;;;;;;10.10;5.40;;;;;;;19.01;52.01;97473.20;268606;1277;23149;-86
2023/03/14 21:02:46;;;;;;;7.70;4.70;;;;;;;19.06;51.77;97479.02;268291;1277;22598;-80
2023/03/14 21:08:48;;;;;;;6.10;3.00;;;;;;;19.20;51.23;97477.94;268288;1278;22568;-85
2023/03/14 21:14:56;;;;;;;3.80;1.90;;;;;;;19.52;50.21;97479.30;267903;1270;23236;-90
2023/03/14 21:21:04;;;;;;;4.00;1.80;;;;;;;19.76;49.69;97493.91;267733;1267;26485;-89
2023/03/14 21:27:09;;;;;;;3.50;1.60;;;;;;;19.76;49.62;97493.69;268146;1270;22568;-88
2023/03/14 21:33:31;;;;;;;2.60;1.40;;;;;;;19.63;49.84;97495.34;267856;1277;22556;-91
2023/03/14 21:39:40;;;;;;;2.90;1.50;;;;;;;19.96;49.17;97493.27;267692;1276;24063;-89
2023/03/14 21:45:47;;;;;;;2.60;1.40;;;;;;;20.08;48.64;97494.77;267632;1277;23525;-89
2023/03/14 21:51:51;;;;;;;3.00;1.60;;;;;;;20.02;48.58;97501.34;267628;1277;22540;-89
2023/03/14 21:57:54;;;;;;;2.60;1.40;;;;;;;19.93;48.58;97515.85;267938;1275;23876;-88
2023/03/14 22:03:56;;;;;;;3.10;1.50;;;;;;;19.88;48.59;97524.87;268255;1274;25323;-88
2023/03/14 22:09:59;;;;;;;2.80;1.40;;;;;;;20.04;48.40;97533.52;268116;1275;22652;-88
2023/03/14 22:16:04;;;;;;;4.20;1.50;;;;;;;19.75;48.76;97541.57;268078;1274;24256;-87
2023/03/14 22:22:09;;;;;;;3.00;1.80;;;;;;;19.78;48.72;97552.11;268204;1274;22592;-89
2023/03/14 22:28:11;;;;;;;3.60;1.40;;;;;;;20.19;48.09;97561.35;270177;1274;22633;-91
2023/03/14 22:34:14;;;;;;;2.50;1.40;;;;;;;20.26;48.05;97566.45;268541;1258;24247;-90
2023/03/14 22:40:18;;;;;;;2.30;1.30;;;;;;;20.60;47.57;97569.11;268264;1275;22583;-91
2023/03/14 22:46:24;;;;;;;3.30;1.10;;;;;;;20.86;47.10;97572.09;268782;1274;22536;-91
2023/03/14 22:52:29;;;;;;;2.40;1.30;;;;;;;20.82;47.11;97583.17;268235;1274;23414;-84
2023/03/14 22:58:33;;;;;;;;;;;;;;;20.69;47.38;97571.16;267859;1267;22518;-85
2023/03/14 23:04:35;;;;;;;2.50;1.30;;;;;;;20.70;47.45;97575.34;267868;1275;22517;-84
2023/03/14 23:10:37;;;;;;;1.80;1.00;;;;;;;20.73;47.49;97583.08;267952;1258;22523;-85
2023/03/14 23:16:40;;;;;;;3.00;1.00;;;;;;;20.77;47.50;97595.09;267919;1270;22531;-84
2023/03/14 23:22:42;;;;;;;2.80;1.30;;;;;;;21.00;47.20;97598.98;267401;1269;23233;-84
2023/03/14 23:28:44;;;;;;;4.00;1.40;;;;;;;21.34;46.74;97602.33;267468;1268;22572;-84
2023/03/14 23:34:45;;;;;;;3.00;1.40;;;;;;;21.42;46.67;97618.23;268168;1267;23898;-85
2023/03/14 23:40:51;;;;;;;2.80;1.70;;;;;;;21.31;46.80;97628.38;268396;1257;22610;-85
2023/03/14 23:46:52;;;;;;;3.50;2.30;;;;;;;20.64;47.59;97639.46;268443;1273;22559;-83
2023/03/14 23:52:57;;;;;;;5.40;4.10;;;;;;;19.61;49.89;97662.96;269289;1274;24610;-84
2023/03/14 23:58:59;;;;;;;6.00;3.30;;;;;;;19.80;50.03;97677.70;268603;1275;23295;-83
